createdAt,value
2023-02-19T00:02:11.904Z,100008.02
2023-02-19T00:04:42.974Z,99998.55
2023-02-19T00:07:09.749Z,100000.35
2023-02-19T00:09:43.197Z,100004.64
2023-02-19T00:12:12.471Z,100007.13
2023-02-19T00:14:39.292Z,100009.94
2023-02-19T00:17:06.166Z,100010.22
2023-02-19T00:19:33.195Z,100009.66
2023-02-19T00:22:00.191Z,100012.50
2023-02-19T00:24:27.196Z,100011.00
2023-02-19T00:26:54.017Z,100010.83
2023-02-19T00:29:21.477Z,100014.02
2023-02-19T00:31:48.393Z,100012.52
2023-02-19T00:34:15.512Z,100013.73
2023-02-19T00:36:43.539Z,100018.02
2023-02-19T00:39:13.482Z,100021.67
2023-02-19T00:41:41.368Z,100028.08
2023-02-19T00:44:10.735Z,100035.64
2023-02-19T00:46:46.859Z,100033.64
2023-02-19T00:49:19.614Z,100035.89
2023-02-19T00:51:49.650Z,100027.06
2023-02-19T00:54:24.095Z,100023.67
2023-02-19T00:56:51.487Z,100019.88
2023-02-19T00:59:20.800Z,100016.73
2023-02-19T01:01:49.103Z,100014.11
2023-02-19T01:04:17.445Z,100013.66
2023-02-19T01:06:44.306Z,100009.64
2023-02-19T01:09:13.194Z,100012.61
2023-02-19T01:11:41.339Z,100012.48
2023-02-19T01:14:09.203Z,100011.84
2023-02-19T01:16:35.959Z,100013.87
2023-02-19T01:19:05.823Z,100016.83
2023-02-19T01:21:32.711Z,100019.71
2023-02-19T01:23:59.918Z,100018.69
2023-02-19T01:26:30.552Z,100020.94
2023-02-19T01:28:59.388Z,100020.12
2023-02-19T01:31:27.695Z,100019.98
2023-02-19T01:34:00.649Z,100018.86
2023-02-19T01:36:31.172Z,100019.83
2023-02-19T01:39:03.253Z,100021.20
2023-02-19T01:41:31.226Z,100021.07
2023-02-19T01:44:03.513Z,100020.70
2023-02-19T01:46:35.923Z,100019.98
2023-02-19T01:49:13.340Z,100020.55
2023-02-19T01:51:48.726Z,100018.42
2023-02-19T01:54:19.105Z,100014.67
2023-02-19T01:56:48.310Z,100015.14
2023-02-19T01:59:18.610Z,100017.43
2023-02-19T02:01:54.706Z,100019.34
2023-02-19T02:04:24.319Z,100019.33
2023-02-19T02:06:56.855Z,100020.73
2023-02-19T02:09:45.755Z,100019.67
2023-02-19T02:12:12.751Z,100018.42
2023-02-19T02:14:47.564Z,100018.21
2023-02-19T02:17:14.467Z,100025.27
2023-02-19T02:20:14.490Z,100031.98
2023-02-19T02:23:00.187Z,100033.35
2023-02-19T02:25:57.508Z,100029.50
2023-02-19T02:29:24.629Z,100033.73
2023-02-19T02:32:06.943Z,100031.96
2023-02-19T02:34:41.338Z,100030.09
2023-02-19T02:37:09.716Z,100028.37
2023-02-19T02:39:41.816Z,100031.54
2023-02-19T02:42:27.473Z,100032.86
2023-02-19T02:45:36.045Z,100034.60
2023-02-19T02:48:29.901Z,100035.77
2023-02-19T02:51:10.465Z,100031.19
2023-02-19T02:54:10.371Z,100031.67
2023-02-19T02:56:41.088Z,100032.77
2023-02-19T02:59:10.466Z,100036.48
2023-02-19T03:02:04.584Z,100037.43
2023-02-19T03:05:05.401Z,100034.59
2023-02-19T03:07:41.661Z,100033.91
2023-02-19T03:10:15.643Z,100030.83
2023-02-19T03:13:03.644Z,100036.45
2023-02-19T03:15:55.327Z,100031.34
2023-02-19T03:18:43.582Z,100031.98
2023-02-19T03:21:11.902Z,100033.31
2023-02-19T03:23:59.486Z,100040.48
2023-02-19T03:26:27.764Z,100041.88
2023-02-19T03:29:15.941Z,100045.28
2023-02-19T03:31:47.561Z,100043.61
2023-02-19T03:34:26.201Z,100044.67
2023-02-19T03:37:11.418Z,100053.10
2023-02-19T03:39:43.854Z,100058.00
2023-02-19T03:42:32.281Z,100056.25
2023-02-19T03:44:59.648Z,100054.63
2023-02-19T03:47:52.561Z,100058.77
2023-02-19T03:50:27.422Z,100054.39
2023-02-19T03:53:35.112Z,100055.11
2023-02-19T03:56:15.765Z,100056.52
2023-02-19T03:59:02.771Z,100052.29
2023-02-19T04:01:43.819Z,100050.55
2023-02-19T04:04:27.205Z,100052.09
2023-02-19T04:07:06.090Z,100050.98
2023-02-19T04:09:43.822Z,100046.38
2023-02-19T04:12:18.287Z,100045.47
2023-02-19T04:14:54.363Z,100047.86
2023-02-19T04:17:26.951Z,100045.09
2023-02-19T04:19:57.287Z,100044.89
2023-02-19T04:22:24.959Z,100054.19
2023-02-19T04:24:55.856Z,100059.59
2023-02-19T04:27:23.018Z,100062.98
2023-02-19T04:29:49.781Z,100059.84
2023-02-19T04:32:16.831Z,100058.04
2023-02-19T04:34:44.096Z,100066.98
2023-02-19T04:37:18.844Z,100075.98
2023-02-19T04:39:54.517Z,100083.92
2023-02-19T04:42:30.821Z,100088.02
2023-02-19T04:45:00.165Z,100088.66
2023-02-19T04:47:28.497Z,100084.70
2023-02-19T04:50:00.113Z,100088.15
2023-02-19T04:52:36.635Z,100087.43
2023-02-19T04:55:03.658Z,100090.43
2023-02-19T04:57:31.766Z,100094.83
2023-02-19T04:59:58.692Z,100087.05
2023-02-19T05:02:25.639Z,100090.05
2023-02-19T05:04:53.832Z,100092.98
2023-02-19T05:07:20.782Z,100087.92
2023-02-19T05:09:51.996Z,100080.13
2023-02-19T05:12:20.237Z,100078.73
2023-02-19T05:14:47.055Z,100075.02
2023-02-19T05:17:14.105Z,100075.39
2023-02-19T05:19:43.536Z,100073.55
2023-02-19T05:22:10.492Z,100065.16
2023-02-19T05:24:37.419Z,100065.50
2023-02-19T05:27:04.193Z,100060.60
2023-02-19T05:29:31.738Z,100059.38
2023-02-19T05:31:58.811Z,100061.50
2023-02-19T05:34:25.738Z,100061.05
2023-02-19T05:36:52.504Z,100055.39
2023-02-19T05:39:19.245Z,100046.98
2023-02-19T05:41:46.072Z,100046.70
2023-02-19T05:44:12.882Z,100046.11
2023-02-19T05:46:39.715Z,100051.27
2023-02-19T05:49:06.666Z,100055.77
2023-02-19T05:51:33.594Z,100060.30
2023-02-19T05:54:00.429Z,100063.39
2023-02-19T05:56:38.410Z,100064.20
2023-02-19T05:59:19.210Z,100061.04
2023-02-19T06:01:47.463Z,100065.87
2023-02-19T06:04:15.194Z,100073.74
2023-02-19T06:06:42.734Z,100066.56
2023-02-19T06:09:12.967Z,100066.65
2023-02-19T06:11:40.229Z,100057.34
2023-02-19T06:14:07.098Z,100051.07
2023-02-19T06:16:39.515Z,100054.65
2023-02-19T06:19:06.382Z,100048.02
2023-02-19T06:21:33.446Z,100053.88
2023-02-19T06:24:05.515Z,100056.78
2023-02-19T06:26:36.267Z,100060.45
2023-02-19T06:29:08.066Z,100067.69
2023-02-19T06:31:34.966Z,100063.36
2023-02-19T06:34:05.537Z,100059.66
2023-02-19T06:36:39.103Z,100068.11
2023-02-19T06:39:06.675Z,100066.94
2023-02-19T06:41:33.566Z,100067.38
2023-02-19T06:44:01.796Z,100070.90
2023-02-19T06:46:30.248Z,100077.13
2023-02-19T06:48:59.124Z,100078.63
2023-02-19T06:51:29.169Z,100081.02
2023-02-19T06:53:58.309Z,100087.90
2023-02-19T06:56:32.073Z,100088.17
2023-02-19T06:59:03.886Z,100087.38
2023-02-19T07:01:41.240Z,100083.00
2023-02-19T07:04:31.653Z,100080.33
2023-02-19T07:07:04.755Z,100080.35
2023-02-19T07:09:37.203Z,100088.87
2023-02-19T07:12:09.598Z,100088.45
2023-02-19T07:14:36.474Z,100074.96
2023-02-19T07:17:03.204Z,100072.69
2023-02-19T07:19:32.174Z,100078.70
2023-02-19T07:22:02.312Z,100080.08
2023-02-19T07:24:30.524Z,100080.29
2023-02-19T07:26:57.393Z,100084.88
2023-02-19T07:29:25.634Z,100085.05
2023-02-19T07:31:57.606Z,100078.86
2023-02-19T07:34:27.259Z,100085.23
2023-02-19T07:36:55.288Z,100085.23
2023-02-19T07:39:22.123Z,100084.49
2023-02-19T07:41:48.812Z,100077.42
2023-02-19T07:44:33.880Z,100076.41
2023-02-19T07:47:00.703Z,100069.91
2023-02-19T07:49:32.673Z,100072.45
2023-02-19T07:52:07.100Z,100076.67
2023-02-19T07:54:33.892Z,100076.27
2023-02-19T07:57:01.214Z,100077.93
2023-02-19T07:59:30.374Z,100076.34
2023-02-19T08:02:17.863Z,100072.78
2023-02-19T08:05:04.942Z,100068.46
2023-02-19T08:07:38.464Z,100068.69
2023-02-19T08:10:24.329Z,100059.36
2023-02-19T08:13:23.647Z,100056.52
2023-02-19T08:16:24.090Z,100057.27
2023-02-19T08:18:57.464Z,100058.58
2023-02-19T08:21:24.183Z,100059.52
2023-02-19T08:23:55.640Z,100062.45
2023-02-19T08:26:23.695Z,100065.71
2023-02-19T08:28:50.484Z,100069.73
2023-02-19T08:31:17.289Z,100073.90
2023-02-19T08:33:45.316Z,100081.05
2023-02-19T08:36:17.117Z,100075.70
2023-02-19T08:38:47.755Z,100082.96
2023-02-19T08:41:17.266Z,100085.92
2023-02-19T08:43:46.503Z,100088.88
2023-02-19T08:46:13.592Z,100082.78
2023-02-19T08:48:44.478Z,100077.11
2023-02-19T08:51:19.085Z,100085.55
2023-02-19T08:53:47.670Z,100087.86
2023-02-19T08:56:16.848Z,100077.70
2023-02-19T08:58:48.309Z,100073.64
2023-02-19T09:01:23.308Z,100076.02
2023-02-19T09:03:49.998Z,100079.45
2023-02-19T09:06:20.628Z,100076.61
2023-02-19T09:08:51.637Z,100076.13
2023-02-19T09:11:23.861Z,100068.33
2023-02-19T09:13:59.725Z,100070.52
2023-02-19T09:16:28.824Z,100070.24
2023-02-19T09:21:45.846Z,100057.32
2023-02-19T09:24:20.813Z,100059.39
2023-02-19T09:26:58.568Z,100066.40
2023-02-19T09:29:42.441Z,100064.02
2023-02-19T09:32:14.349Z,100062.29
2023-02-19T09:34:54.992Z,100059.73
2023-02-19T09:37:34.073Z,100059.42
2023-02-19T09:40:01.105Z,100063.39
2023-02-19T09:42:41.979Z,100061.62
2023-02-19T09:45:19.571Z,100061.58
2023-02-19T09:47:47.332Z,100064.24
2023-02-19T09:50:19.142Z,100063.69
2023-02-19T09:52:54.010Z,100063.15
2023-02-19T09:55:44.409Z,100062.95
2023-02-19T09:58:29.406Z,100059.71
2023-02-19T10:01:10.553Z,100062.52
2023-02-19T10:03:40.901Z,100069.45
2023-02-19T10:06:23.427Z,100063.79
2023-02-19T10:08:57.308Z,100061.17
2023-02-19T10:11:26.738Z,100055.98
2023-02-19T10:14:16.413Z,100055.92
2023-02-19T10:16:49.856Z,100055.10
2023-02-19T10:19:20.110Z,100052.09
2023-02-19T10:21:47.054Z,100054.44
2023-02-19T10:24:23.822Z,100048.46
2023-02-19T10:26:51.116Z,100046.52
2023-02-19T10:29:21.415Z,100049.05
2023-02-19T10:31:48.396Z,100042.53
2023-02-19T10:34:23.076Z,100034.23
2023-02-19T10:36:56.096Z,100037.25
2023-02-19T10:39:46.580Z,100030.41
2023-02-19T10:42:26.299Z,100023.96
2023-02-19T10:44:58.310Z,100023.42
2023-02-19T10:47:26.771Z,100020.23
2023-02-19T10:50:02.047Z,100018.42
2023-02-19T10:52:41.861Z,100019.85
2023-02-19T10:55:25.729Z,100016.51
2023-02-19T10:57:55.074Z,100012.20
2023-02-19T11:00:36.882Z,100006.86
2023-02-19T11:03:34.170Z,99998.81
2023-02-19T11:06:15.250Z,99991.14
2023-02-19T11:08:54.253Z,99991.38
2023-02-19T11:11:36.770Z,99985.36
2023-02-19T11:14:23.020Z,99977.42
2023-02-19T11:16:57.105Z,99971.34
2023-02-19T11:19:44.851Z,99968.48
2023-02-19T11:22:41.679Z,99965.85
2023-02-19T11:25:17.177Z,99970.92
2023-02-19T11:28:18.218Z,99966.77
2023-02-19T11:30:48.830Z,99965.89
2023-02-19T11:33:33.513Z,99961.92
2023-02-19T11:39:47.526Z,99957.20
2023-02-19T11:42:35.310Z,99954.20
2023-02-19T11:45:21.428Z,99949.14
2023-02-19T11:48:34.776Z,99944.58
2023-02-19T11:52:05.160Z,99946.11
2023-02-19T11:54:39.874Z,99939.44
2023-02-19T11:57:14.119Z,99936.79
2023-02-19T12:00:27.042Z,99934.52
2023-02-19T12:03:33.517Z,99929.09
2023-02-19T12:06:18.646Z,99930.45
2023-02-19T12:08:45.525Z,99929.54
2023-02-19T12:11:27.479Z,99920.11
2023-02-19T12:14:32.647Z,99905.95
2023-02-19T12:17:31.789Z,99901.96
2023-02-19T12:20:21.900Z,99897.81
2023-02-19T12:23:04.983Z,99893.73
2023-02-19T12:26:14.168Z,99888.40
2023-02-19T12:29:21.956Z,99883.33
2023-02-19T12:32:26.584Z,99874.38
2023-02-19T12:35:05.364Z,99867.80
2023-02-19T12:37:49.502Z,99875.17
2023-02-19T12:40:33.775Z,99864.97
2023-02-19T12:43:20.949Z,99862.64
2023-02-19T12:46:15.391Z,99863.56
2023-02-19T12:48:59.894Z,99858.08
2023-02-19T12:51:43.845Z,99860.52
2023-02-19T12:54:30.156Z,99860.52
2023-02-19T12:57:23.923Z,99859.71
2023-02-19T13:00:09.240Z,99852.97
2023-02-19T13:02:51.436Z,99849.55
2023-02-19T13:06:00.566Z,99845.87
2023-02-19T13:09:07.374Z,99839.36
2023-02-19T13:11:43.077Z,99842.77
2023-02-19T13:14:41.248Z,99837.60
2023-02-19T13:17:26.329Z,99823.48
2023-02-19T13:20:02.014Z,99814.94
2023-02-19T13:22:52.884Z,99814.17
2023-02-19T13:25:21.321Z,99813.65
2023-02-19T13:28:32.728Z,99813.29
2023-02-19T13:31:12.107Z,99806.28
2023-02-19T13:34:02.252Z,99800.73
2023-02-19T13:36:38.640Z,99804.41
2023-02-19T13:39:07.441Z,99801.70
2023-02-19T13:41:48.528Z,99798.66
2023-02-19T13:44:23.718Z,99797.98
2023-02-19T13:46:51.089Z,99790.61
2023-02-19T13:49:31.025Z,99781.75
2023-02-19T13:52:01.659Z,99782.94
2023-02-19T13:54:39.563Z,99780.61
2023-02-19T13:57:17.772Z,99777.64
2023-02-19T13:59:47.765Z,99770.08
2023-02-19T14:02:20.759Z,99768.17
2023-02-19T14:05:01.635Z,99769.67
2023-02-19T14:07:36.735Z,99768.49
2023-02-19T14:10:14.285Z,99766.20
2023-02-19T14:12:53.245Z,99764.30
2023-02-19T14:15:42.250Z,99764.11
2023-02-19T14:18:42.243Z,99758.60
2023-02-19T14:21:37.790Z,99758.02
2023-02-19T14:24:10.595Z,99753.67
2023-02-19T14:26:39.047Z,99756.27
2023-02-19T14:29:17.050Z,99759.83
2023-02-19T14:31:47.603Z,99765.42
2023-02-19T14:34:26.572Z,99769.38
2023-02-19T14:37:01.971Z,99766.42
2023-02-19T14:39:32.972Z,99768.39
2023-02-19T14:42:04.375Z,99765.92
2023-02-19T14:45:04.888Z,99766.06
2023-02-19T14:47:43.216Z,99769.44
2023-02-19T14:50:21.072Z,99770.92
2023-02-19T14:53:14.772Z,99773.14
2023-02-19T14:55:59.331Z,99777.49
2023-02-19T14:58:38.609Z,99774.06
2023-02-19T15:01:30.289Z,99768.97
2023-02-19T15:04:01.804Z,99763.38
2023-02-19T15:06:31.689Z,99757.34
2023-02-19T15:09:10.727Z,99755.88
2023-02-19T15:11:51.960Z,99752.73
2023-02-19T15:14:23.221Z,99757.06
2023-02-19T15:17:02.537Z,99752.83
2023-02-19T15:19:34.498Z,99746.27
2023-02-19T15:22:06.661Z,99740.07
2023-02-19T15:24:36.923Z,99744.48
2023-02-19T15:27:29.165Z,99768.96
2023-02-19T15:29:56.103Z,99803.41
2023-02-19T15:33:09.189Z,99816.02
2023-02-19T15:40:15.936Z,99809.82
2023-02-19T15:42:53.061Z,99789.80
2023-02-19T15:45:54.120Z,99787.31
2023-02-19T15:48:42.541Z,99793.58
2023-02-19T15:51:18.598Z,99804.27
2023-02-19T15:53:52.892Z,99806.20
2023-02-19T15:56:48.924Z,99804.61
2023-02-19T15:59:48.364Z,99801.91
2023-02-19T16:02:52.919Z,99805.11
2023-02-19T16:05:29.691Z,99807.91
2023-02-19T16:08:31.057Z,99807.48
2023-02-19T16:11:04.876Z,99807.02
2023-02-19T16:13:34.499Z,99805.52
2023-02-19T16:16:15.335Z,99805.73
2023-02-19T16:18:47.167Z,99799.27
2023-02-19T16:21:28.080Z,99796.60
2023-02-19T16:25:04.598Z,99800.80
2023-02-19T16:27:07.381Z,99809.16
2023-02-19T16:30:22.829Z,99814.46
2023-02-19T16:33:29.835Z,99825.67
2023-02-19T16:36:20.267Z,99829.65
2023-02-19T16:39:07.938Z,99834.55
2023-02-19T16:43:31.087Z,99825.83
2023-02-19T16:45:58.930Z,99823.47
2023-02-19T16:48:29.307Z,99830.40
2023-02-19T16:52:11.661Z,99844.29
2023-02-19T16:54:54.553Z,99845.35
2023-02-19T16:57:39.892Z,99848.04
2023-02-19T17:01:50.475Z,99846.52
2023-02-19T17:04:19.867Z,99852.05
2023-02-19T17:06:47.759Z,99862.64
2023-02-19T17:09:27.506Z,99869.23
2023-02-19T17:12:15.219Z,99871.76
2023-02-19T17:14:45.564Z,99875.61
2023-02-19T17:18:39.431Z,99879.13
2023-02-19T17:31:04.778Z,99886.95
2023-02-19T17:37:39.559Z,99906.48
2023-02-19T17:45:11.640Z,99923.09
2023-02-19T17:53:02.208Z,99930.11
2023-02-19T17:57:28.544Z,99924.64
2023-02-19T18:01:09.084Z,99933.69
2023-02-19T18:03:57.396Z,99940.48
2023-02-19T18:22:43.098Z,99959.23
2023-02-19T18:25:19.850Z,99965.54
2023-02-19T18:32:45.152Z,99985.05
2023-02-19T18:36:57.151Z,99985.48
2023-02-19T18:44:47.442Z,99990.34
2023-02-19T18:51:31.836Z,99989.40
2023-02-19T19:16:39.699Z,100020.45
2023-02-19T19:32:18.995Z,100046.09
2023-02-19T19:35:00.386Z,100055.98
2023-02-19T19:37:44.166Z,100059.51
2023-02-19T19:40:19.923Z,100065.02
2023-02-19T19:43:13.897Z,100070.75
2023-02-19T19:56:46.755Z,100072.89
2023-02-19T20:05:02.717Z,100081.41
2023-02-19T20:11:54.497Z,100096.56
2023-02-19T20:12:18.210Z,100073.89
2023-02-19T20:14:52.340Z,100102.73
2023-02-19T20:17:28.763Z,100111.45
2023-02-19T20:19:56.792Z,100123.42
2023-02-19T20:24:12.840Z,100135.42
2023-02-19T20:25:59.130Z,100158.55
2023-02-19T20:31:50.706Z,100183.47
2023-02-19T20:34:45.709Z,100191.59
2023-02-19T20:44:02.746Z,100247.34
2023-02-19T20:48:08.289Z,100258.06
2023-02-19T20:50:30.143Z,100264.89
2023-02-19T20:53:03.632Z,100276.98
2023-02-19T21:01:40.111Z,100289.84
2023-02-19T21:03:20.332Z,100312.84
2023-02-19T21:05:26.335Z,100264.58
2023-02-19T21:09:41.525Z,100323.02
2023-02-19T21:12:58.379Z,100323.60
2023-02-19T21:18:22.636Z,100351.58
2023-02-19T21:21:20.589Z,100356.23
2023-02-19T21:24:17.024Z,100357.88
2023-02-19T21:26:45.287Z,100377.13
2023-02-19T21:32:25.432Z,100398.99
2023-02-19T21:34:55.138Z,100395.80
2023-02-19T21:37:24.419Z,100405.93
2023-02-19T21:39:51.899Z,100411.61
2023-02-19T21:42:31.743Z,100412.83
2023-02-19T21:45:00.022Z,100410.93
2023-02-19T21:47:28.507Z,100408.84
2023-02-19T21:49:57.547Z,100409.45
2023-02-19T21:52:26.735Z,100412.90
2023-02-19T21:54:54.692Z,100411.50
2023-02-19T21:57:30.993Z,100405.83
2023-02-19T22:00:09.641Z,100406.56
2023-02-19T22:03:03.528Z,100413.44
2023-02-19T22:05:30.527Z,100423.35
2023-02-19T22:08:28.877Z,100425.40
2023-02-19T22:11:00.461Z,100426.98
2023-02-19T22:13:32.128Z,100439.95
2023-02-19T22:15:59.103Z,100447.67
2023-02-19T22:18:33.071Z,100456.42
2023-02-19T22:21:01.595Z,100467.86
2023-02-19T22:23:30.106Z,100471.48
2023-02-19T22:26:00.156Z,100474.73
2023-02-19T22:28:27.212Z,100477.21
2023-02-19T22:30:55.493Z,100476.52
2023-02-19T22:33:29.813Z,100484.67
2023-02-19T22:36:09.813Z,100491.73
2023-02-19T22:38:42.412Z,100493.41
2023-02-19T22:41:09.899Z,100500.39
2023-02-19T22:43:36.994Z,100500.84
2023-02-19T22:46:18.028Z,100501.41
2023-02-19T22:48:47.895Z,100502.81
2023-02-19T22:51:23.149Z,100499.65
2023-02-19T22:54:13.401Z,100503.63
2023-02-19T22:56:58.480Z,100507.83
2023-02-19T22:59:59.516Z,100518.37
2023-02-19T23:02:29.208Z,100520.89
2023-02-19T23:04:56.037Z,100523.08
2023-02-19T23:07:25.173Z,100531.34
2023-02-19T23:09:54.834Z,100533.30
2023-02-19T23:12:28.189Z,100532.90
2023-02-19T23:15:16.381Z,100547.85
2023-02-19T23:17:44.908Z,100558.96
2023-02-19T23:20:15.520Z,100561.73
2023-02-19T23:22:58.776Z,100574.16
2023-02-19T23:25:29.641Z,100585.14
2023-02-19T23:32:27.340Z,100585.59
2023-02-19T23:34:58.491Z,100589.05
2023-02-19T23:38:00.258Z,100584.62
2023-02-19T23:40:30.955Z,100589.89
2023-02-19T23:43:06.803Z,100589.63
2023-02-19T23:45:40.050Z,100582.41
2023-02-19T23:48:07.089Z,100578.42
2023-02-19T23:50:33.965Z,100573.00
2023-02-19T23:53:09.772Z,100575.40
2023-02-19T23:55:36.748Z,100575.86
2023-02-19T23:58:03.757Z,100580.89
